createdAt,value
2023-04-25T00:00:06.965Z,6.6
2023-04-25T00:01:06.656Z,6.6
2023-04-25T00:02:06.130Z,6.5
2023-04-25T00:03:06.872Z,6.5
2023-04-25T00:04:07.355Z,6.5
2023-04-25T00:05:07.828Z,6.5
2023-04-25T00:06:05.820Z,6.5
2023-04-25T00:07:06.423Z,6.5
2023-04-25T00:08:06.774Z,6.5
2023-04-25T00:09:06.836Z,6.5
2023-04-25T00:10:05.921Z,6.5
2023-04-25T00:11:06.410Z,6.5
2023-04-25T00:12:06.879Z,6.5
2023-04-25T00:13:05.984Z,6.5
2023-04-25T00:14:06.300Z,6
2023-04-25T00:15:06.708Z,6.5
2023-04-25T00:16:06.314Z,6.5
2023-04-25T00:17:06.322Z,6.5
2023-04-25T00:18:06.656Z,6.5
2023-04-25T00:19:06.800Z,6.5
2023-04-25T00:20:07.021Z,6.5
2023-04-25T00:21:06.235Z,6.5
2023-04-25T00:22:06.193Z,6.5
2023-04-25T00:23:06.699Z,6.5
2023-04-25T00:28:06.322Z,6.4
2023-04-25T00:29:06.191Z,6.5
2023-04-25T00:30:06.898Z,6.4
2023-04-25T00:31:05.985Z,6.4
2023-04-25T00:32:06.484Z,6.4
2023-04-25T00:35:07.093Z,6
2023-04-25T00:36:06.083Z,6.3
2023-04-25T00:37:06.369Z,6.4
2023-04-25T00:38:06.690Z,6.4
2023-04-25T00:39:06.729Z,6.3
2023-04-25T00:40:06.146Z,6.3
2023-04-25T00:41:06.104Z,6.3
2023-04-25T00:42:06.660Z,6
2023-04-25T00:43:06.721Z,6
2023-04-25T00:44:05.990Z,6.3
2023-04-25T00:45:06.407Z,6.3
2023-04-25T00:46:07.011Z,6.3
2023-04-25T00:47:06.203Z,6.3
2023-04-25T00:48:06.607Z,6.3
2023-04-25T00:49:06.693Z,6.3
2023-04-25T00:50:06.900Z,6.3
2023-04-25T00:51:06.189Z,6.3
2023-04-25T00:52:06.491Z,6.3
2023-04-25T00:53:06.730Z,6.3
2023-04-25T00:54:06.848Z,6
2023-04-25T00:55:06.110Z,6.4
2023-04-25T00:56:06.774Z,6.4
2023-04-25T00:57:06.847Z,6.4
2023-04-25T00:58:06.141Z,6.4
2023-04-25T00:59:06.404Z,6.4
2023-04-25T01:00:06.350Z,6.4
2023-04-25T01:01:07.114Z,6.3
2023-04-25T01:02:06.302Z,6.4
2023-04-25T01:03:06.741Z,6.4
2023-04-25T01:04:07.002Z,6.4
2023-04-25T01:05:06.257Z,6.4
2023-04-25T01:06:06.299Z,6.4
2023-04-25T01:07:06.628Z,6.4
2023-04-25T01:08:06.904Z,6.4
2023-04-25T01:09:05.967Z,6.4
2023-04-25T01:10:06.529Z,6.4
2023-04-25T01:11:06.691Z,6.4
2023-04-25T01:12:07.019Z,6.4
2023-04-25T01:13:06.063Z,6.4
2023-04-25T01:14:06.207Z,6.3
2023-04-25T01:15:06.652Z,6.3
2023-04-25T01:16:07.031Z,6.3
2023-04-25T01:17:06.315Z,6.3
2023-04-25T01:18:06.649Z,6.3
2023-04-25T01:19:06.856Z,6.3
2023-04-25T01:20:06.061Z,6.3
2023-04-25T01:21:06.378Z,6.3
2023-04-25T01:22:06.526Z,6.3
2023-04-25T01:24:06.183Z,6.2
2023-04-25T01:25:06.521Z,6.2
2023-04-25T01:26:06.649Z,6.2
2023-04-25T01:27:06.134Z,6
2023-04-25T01:28:06.344Z,6.2
2023-04-25T01:29:06.765Z,6.2
2023-04-25T01:30:06.142Z,6.2
2023-04-25T01:31:06.266Z,6.2
2023-04-25T01:32:06.765Z,6
2023-04-25T01:34:07.083Z,6.2
2023-04-25T01:35:06.164Z,6.2
2023-04-25T01:36:06.428Z,6.2
2023-04-25T01:37:06.628Z,6.2
2023-04-25T01:38:06.821Z,6.2
2023-04-25T01:39:06.329Z,6.2
2023-04-25T01:40:06.431Z,6
2023-04-25T01:41:06.402Z,6.2
2023-04-25T01:42:06.625Z,6.2
2023-04-25T01:43:06.841Z,6.2
2023-04-25T01:46:07.019Z,6
2023-04-25T01:47:05.624Z,6.2
2023-04-25T01:48:07.004Z,6.2
2023-04-25T01:49:06.214Z,6.2
2023-04-25T01:50:06.553Z,6.2
2023-04-25T01:51:06.856Z,6.2
2023-04-25T01:52:06.169Z,6.2
2023-04-25T01:53:06.285Z,6.2
2023-04-25T01:54:06.626Z,6.2
2023-04-25T01:55:06.556Z,6.2
2023-04-25T01:56:06.703Z,6.2
2023-04-25T01:57:06.060Z,6.2
2023-04-25T01:58:06.362Z,6.2
2023-04-25T01:59:06.591Z,6.2
2023-04-25T02:00:06.915Z,6.2
2023-04-25T02:02:06.407Z,6.2
2023-04-25T02:03:07.166Z,6.2
2023-04-25T02:04:07.642Z,6.2
2023-04-25T02:05:06.725Z,6.2
2023-04-25T02:06:06.955Z,6.2
2023-04-25T02:07:06.264Z,6.2
2023-04-25T02:08:06.423Z,6.2
2023-04-25T02:09:06.723Z,6.2
2023-04-25T02:10:05.951Z,6.2
2023-04-25T02:11:06.560Z,6.2
2023-04-25T02:12:06.796Z,6.2
2023-04-25T02:13:06.072Z,6.2
2023-04-25T02:14:06.195Z,6.2
2023-04-25T02:15:06.586Z,6.2
2023-04-25T02:16:06.990Z,6.2
2023-04-25T02:17:06.199Z,6.2
2023-04-25T02:18:06.344Z,6.2
2023-04-25T02:19:06.754Z,6.2
2023-04-25T02:20:07.156Z,6.2
2023-04-25T02:21:06.401Z,6.1
2023-04-25T02:22:06.675Z,6.1
2023-04-25T02:23:06.811Z,6.1
2023-04-25T02:24:06.343Z,6.1
2023-04-25T02:25:06.426Z,6
2023-04-25T02:26:06.766Z,6
2023-04-25T02:27:06.912Z,6
2023-04-25T02:28:06.107Z,6
2023-04-25T02:29:06.435Z,6
2023-04-25T02:30:06.553Z,6
2023-04-25T02:31:06.910Z,6
2023-04-25T02:32:06.102Z,5.9
2023-04-25T02:33:06.451Z,5.9
2023-04-25T02:34:06.646Z,5.9
2023-04-25T02:35:07.095Z,5
2023-04-25T02:36:06.125Z,5
2023-04-25T02:37:06.389Z,5.8
2023-04-25T02:38:06.770Z,5.8
2023-04-25T02:39:06.952Z,5.8
2023-04-25T02:40:06.215Z,5.8
2023-04-25T02:41:06.388Z,5.7
2023-04-25T02:42:06.575Z,5.7
2023-04-25T02:43:06.753Z,5.7
2023-04-25T02:44:06.187Z,5.6
2023-04-25T02:45:06.427Z,5.6
2023-04-25T02:46:06.525Z,5.6
2023-04-25T02:47:06.898Z,5.6
2023-04-25T02:48:06.766Z,5.6
2023-04-25T02:51:06.217Z,5.6
2023-04-25T02:52:05.277Z,5.6
2023-04-25T02:53:06.765Z,5.5
2023-04-25T02:54:06.617Z,5.5
2023-04-25T02:55:05.879Z,5.5
2023-04-25T02:56:06.281Z,5.5
2023-04-25T02:57:06.675Z,5.6
2023-04-25T02:58:06.873Z,5.6
2023-04-25T02:59:05.920Z,5.6
2023-04-25T03:00:06.309Z,5.6
2023-04-25T03:01:06.431Z,5.6
2023-04-25T03:02:06.489Z,5.6
2023-04-25T03:03:07.210Z,5.6
2023-04-25T03:04:06.126Z,5
2023-04-25T03:05:06.246Z,5.6
2023-04-25T03:06:06.534Z,5.6
2023-04-25T03:07:06.807Z,5
2023-04-25T03:08:07.000Z,5.6
2023-04-25T03:09:06.061Z,5.6
2023-04-25T03:10:06.510Z,5
2023-04-25T03:11:06.709Z,5
2023-04-25T03:12:06.242Z,5.6
2023-04-25T03:13:06.454Z,5.6
2023-04-25T03:14:06.608Z,5.6
2023-04-25T03:15:06.862Z,5.6
2023-04-25T03:16:06.080Z,5.6
2023-04-25T03:17:06.486Z,5.6
2023-04-25T03:18:06.393Z,5.6
2023-04-25T03:19:06.933Z,5.6
2023-04-25T03:20:05.992Z,5.6
2023-04-25T03:21:06.758Z,5
2023-04-25T03:22:06.874Z,5
2023-04-25T03:23:06.650Z,5.6
2023-04-25T03:24:05.873Z,5.6
2023-04-25T03:25:06.415Z,5.6
2023-04-25T03:26:06.780Z,5.6
2023-04-25T03:27:05.944Z,5.6
2023-04-25T03:28:06.277Z,5.6
2023-04-25T03:29:06.619Z,5.7
2023-04-25T03:30:06.892Z,5.7
2023-04-25T03:31:06.061Z,5.7
2023-04-25T03:32:06.441Z,5.7
2023-04-25T03:33:06.675Z,5.7
2023-04-25T03:34:06.785Z,5.7
2023-04-25T03:35:06.185Z,5.7
2023-04-25T03:36:06.356Z,5.7
2023-04-25T03:37:06.793Z,5.8
2023-04-25T03:38:06.935Z,5.8
2023-04-25T03:39:06.338Z,5.8
2023-04-25T03:40:06.377Z,5.8
2023-04-25T03:41:06.247Z,5.8
2023-04-25T03:42:06.666Z,5.8
2023-04-25T03:43:06.735Z,5.8
2023-04-25T03:44:05.951Z,5.8
2023-04-25T03:45:06.306Z,5.9
2023-04-25T03:50:06.176Z,5.9
2023-04-25T03:51:06.318Z,6
2023-04-25T03:52:06.535Z,6
2023-04-25T03:53:06.833Z,6
2023-04-25T03:54:06.841Z,6
2023-04-25T03:55:06.257Z,6
2023-04-25T03:56:06.269Z,6
2023-04-25T03:57:06.609Z,6
2023-04-25T03:58:07.043Z,6
2023-04-25T03:59:06.111Z,6
2023-04-25T04:00:06.514Z,6
2023-04-25T04:01:06.642Z,6
2023-04-25T04:02:07.139Z,6
2023-04-25T04:03:06.405Z,5.9
2023-04-25T04:04:06.997Z,5.9
2023-04-25T04:05:07.239Z,5.9
2023-04-25T04:06:07.058Z,5.9
2023-04-25T04:07:06.098Z,5.8
2023-04-25T04:08:06.509Z,5.8
2023-04-25T04:09:06.742Z,5.8
2023-04-25T04:10:07.076Z,5.8
2023-04-25T04:11:06.304Z,5.8
2023-04-25T04:12:06.649Z,5.8
2023-04-25T04:13:06.099Z,5.7
2023-04-25T04:14:06.327Z,5.7
2023-04-25T04:15:06.595Z,5.6
2023-04-25T04:16:06.778Z,5.6
2023-04-25T04:21:06.190Z,5.6
2023-04-25T04:22:06.507Z,5.6
2023-04-25T04:23:06.639Z,5.6
2023-04-25T04:24:05.983Z,5.6
2023-04-25T04:25:06.433Z,5.6
2023-04-25T04:26:06.644Z,5.6
2023-04-25T04:27:06.920Z,5.7
2023-04-25T04:28:06.070Z,5.7
2023-04-25T04:29:06.249Z,5.7
2023-04-25T04:30:06.894Z,5.7
2023-04-25T04:31:06.882Z,5.8
2023-04-25T04:34:06.604Z,5.9
2023-04-25T04:35:06.479Z,5.9
2023-04-25T04:36:06.965Z,5.9
2023-04-25T04:37:06.100Z,5.9
2023-04-25T04:38:06.594Z,6
2023-04-25T04:39:06.721Z,6
2023-04-25T04:40:05.835Z,6
2023-04-25T04:41:06.553Z,6.1
2023-04-25T04:42:06.769Z,6.2
2023-04-25T04:43:06.036Z,6.2
2023-04-25T04:44:07.126Z,6.2
2023-04-25T04:45:06.682Z,6.2
2023-04-25T04:46:07.062Z,6.2
2023-04-25T04:47:06.101Z,6.3
2023-04-25T04:48:06.664Z,6.3
2023-04-25T04:49:06.709Z,6.3
2023-04-25T04:50:07.029Z,6.4
2023-04-25T04:51:06.286Z,6.4
2023-04-25T04:52:06.444Z,6.4
2023-04-25T04:53:06.725Z,6
2023-04-25T04:54:06.885Z,6.4
2023-04-25T04:55:06.006Z,6
2023-04-25T04:56:06.831Z,6.4
2023-04-25T04:57:06.414Z,6.4
2023-04-25T04:58:06.557Z,6.4
2023-04-25T04:59:06.759Z,6.5
2023-04-25T05:00:06.161Z,6.5
2023-04-25T05:01:06.269Z,6.5
2023-04-25T05:02:06.620Z,6.5
2023-04-25T05:03:07.536Z,6.5
2023-04-25T05:04:06.641Z,6.6
2023-04-25T05:08:06.082Z,6
2023-04-25T05:09:06.414Z,6.7
2023-04-25T05:10:06.637Z,6.8
2023-04-25T05:11:06.439Z,6
2023-04-25T05:12:06.629Z,6.8
2023-04-25T05:13:07.048Z,6.8
2023-04-25T05:14:06.097Z,6.8
2023-04-25T05:15:06.375Z,6.9
2023-04-25T05:16:06.598Z,6.9
2023-04-25T05:17:07.057Z,6.9
2023-04-25T05:18:06.028Z,6.9
2023-04-25T05:19:06.440Z,7
2023-04-25T05:20:06.748Z,7.1
2023-04-25T05:21:06.279Z,7.1
2023-04-25T05:22:06.677Z,7.2
2023-04-25T05:23:06.825Z,7.2
2023-04-25T05:24:06.081Z,7.2
2023-04-25T05:25:06.282Z,7.2
2023-04-25T05:26:06.554Z,7.2
2023-04-25T05:27:06.961Z,7.3
2023-04-25T05:28:05.999Z,7.3
2023-04-25T05:29:06.357Z,7.4
2023-04-25T05:30:06.862Z,7.3
2023-04-25T05:34:06.019Z,7.6
2023-04-25T05:35:06.387Z,7.6
2023-04-25T05:36:06.754Z,7.8
2023-04-25T05:37:07.036Z,8
2023-04-25T05:38:06.278Z,8.2
2023-04-25T05:39:06.303Z,8.8
2023-04-25T05:40:06.848Z,8.8
2023-04-25T05:41:06.685Z,9
2023-04-25T05:42:07.018Z,9
2023-04-25T05:43:06.100Z,9.1
2023-04-25T05:44:06.264Z,9.1
2023-04-25T05:45:06.792Z,9.2
2023-04-25T05:48:06.499Z,10.1
2023-04-25T05:49:06.773Z,10.1
2023-04-25T05:50:06.490Z,10.8
2023-04-25T05:51:06.915Z,11.6
2023-04-25T05:55:06.808Z,14
2023-04-25T05:56:06.058Z,13.9
2023-04-25T05:57:06.338Z,13.5
2023-04-25T05:58:06.544Z,13.2
2023-04-25T05:59:06.502Z,12.7
2023-04-25T06:00:06.455Z,12.3
2023-04-25T06:03:06.578Z,12
2023-04-25T06:04:07.287Z,12.4
2023-04-25T06:05:07.571Z,12.8
2023-04-25T06:07:06.040Z,13.7
2023-04-25T06:08:06.300Z,14.1
2023-04-25T06:09:06.784Z,14.1
2023-04-25T06:10:06.198Z,14.1
2023-04-25T06:11:06.319Z,14.1
2023-04-25T06:12:06.891Z,16.5
2023-04-25T06:13:06.201Z,16.5
2023-04-25T06:14:06.399Z,16.5
2023-04-25T06:15:24.086Z,17.3
2023-04-25T06:16:06.094Z,17.5
2023-04-25T06:17:06.169Z,17.7
2023-04-25T06:18:06.718Z,17.9
2023-04-25T06:19:06.691Z,18
2023-04-25T06:20:09.216Z,18
2023-04-25T06:25:06.290Z,16.2
2023-04-25T06:26:06.520Z,17.2
2023-04-25T06:27:06.461Z,17.7
2023-04-25T06:28:06.859Z,18
2023-04-25T06:29:05.945Z,18
2023-04-25T06:30:06.413Z,18
2023-04-25T06:31:06.197Z,17.1
2023-04-25T06:32:06.497Z,16.9
2023-04-25T06:33:07.050Z,16.5
2023-04-25T06:34:06.205Z,16.1
2023-04-25T06:35:06.926Z,15.8
2023-04-25T06:36:06.210Z,15.8
2023-04-25T06:37:06.843Z,15.4
2023-04-25T06:40:06.857Z,15.1
2023-04-25T06:41:06.926Z,15.1
2023-04-25T06:42:06.217Z,15.1
2023-04-25T06:43:06.369Z,15.5
2023-04-25T06:44:06.787Z,15.5
2023-04-25T06:45:06.863Z,15.5
2023-04-25T06:46:06.755Z,16.2
2023-04-25T06:47:06.156Z,16.2
2023-04-25T06:48:06.550Z,16.1
2023-04-25T06:49:06.587Z,15.9
2023-04-25T06:50:06.914Z,15.8
2023-04-25T06:55:06.411Z,16
2023-04-25T06:56:05.530Z,16
2023-04-25T06:57:06.667Z,16.6
2023-04-25T06:58:07.076Z,16.6
2023-04-25T06:59:06.212Z,16.9
2023-04-25T07:00:06.952Z,17.7
2023-04-25T07:01:06.868Z,18.4
2023-04-25T07:04:07.146Z,18.7
2023-04-25T07:05:07.009Z,18.4
2023-04-25T07:06:06.289Z,17.8
2023-04-25T07:07:06.506Z,16.9
2023-04-25T07:08:06.913Z,16.5
2023-04-25T07:09:05.903Z,15.8
2023-04-25T07:10:06.336Z,15.2
2023-04-25T07:11:06.351Z,14.7
2023-04-25T07:12:06.579Z,14.4
2023-04-25T07:13:06.852Z,14
2023-04-25T07:14:06.160Z,13.8
2023-04-25T07:15:06.503Z,13.8
2023-04-25T07:16:06.004Z,13.8
2023-04-25T07:17:06.075Z,12.8
2023-04-25T07:18:06.292Z,12.8
2023-04-25T07:19:06.847Z,12.4
2023-04-25T07:20:06.756Z,12.4
2023-04-25T07:22:07.037Z,12.4
2023-04-25T07:23:06.200Z,11.9
2023-04-25T07:24:06.412Z,11.7
2023-04-25T07:25:06.853Z,11.7
2023-04-25T07:26:06.358Z,11.7
2023-04-25T07:29:06.251Z,11.6
2023-04-25T07:30:06.782Z,11.7
2023-04-25T07:31:06.919Z,11.6
2023-04-25T07:32:06.044Z,11.7
2023-04-25T07:33:06.416Z,11.7
2023-04-25T07:34:05.868Z,11.7
2023-04-25T07:35:06.327Z,11.8
2023-04-25T07:36:06.192Z,11.8
2023-04-25T07:37:06.608Z,11.7
2023-04-25T07:38:06.872Z,11.7
2023-04-25T07:39:06.047Z,11.7
2023-04-25T07:40:06.394Z,11.7
2023-04-25T07:41:06.012Z,11.6
2023-04-25T07:42:06.395Z,11.6
2023-04-25T07:43:06.877Z,11.6
2023-04-25T07:46:06.340Z,11.7
2023-04-25T07:47:08.688Z,11.9
2023-04-25T07:50:06.379Z,11.9
2023-04-25T07:51:06.461Z,11.8
2023-04-25T07:52:06.651Z,11.8
2023-04-25T07:53:06.859Z,9
2023-04-25T07:54:05.990Z,9
2023-04-25T07:55:06.515Z,11.7
2023-04-25T07:56:06.879Z,11.7
2023-04-25T07:57:07.012Z,11.6
2023-04-25T07:58:06.121Z,11.6
2023-04-25T07:59:06.339Z,11.5
2023-04-25T08:00:06.587Z,11.5
2023-04-25T08:01:07.060Z,11.5
2023-04-25T08:02:06.557Z,11.5
2023-04-25T08:03:07.464Z,11.5
2023-04-25T08:04:06.463Z,11.5
2023-04-25T08:05:06.982Z,11.5
2023-04-25T08:06:11.793Z,11.5
2023-04-25T08:08:06.645Z,11.5
2023-04-25T08:09:06.372Z,11.5
2023-04-25T08:10:06.631Z,11.5
2023-04-25T08:11:06.557Z,11.2
2023-04-25T08:12:06.854Z,11.2
2023-04-25T08:13:06.220Z,11.2
2023-04-25T08:14:06.854Z,11
2023-04-25T08:15:05.797Z,10.8
2023-04-25T08:16:06.308Z,10.8
2023-04-25T08:17:06.480Z,10.8
2023-04-25T08:18:06.769Z,10.4
2023-04-25T08:19:06.102Z,10.4
2023-04-25T08:20:06.431Z,10.4
2023-04-25T08:21:06.001Z,10.4
2023-04-25T08:22:06.256Z,10.2
2023-04-25T08:23:06.545Z,10.2
2023-04-25T08:24:07.112Z,10.1
2023-04-25T08:25:06.307Z,10.1
2023-04-25T08:26:06.347Z,10
2023-04-25T08:27:07.083Z,10
2023-04-25T08:28:06.140Z,9.9
2023-04-25T08:29:05.920Z,9.9
2023-04-25T08:30:06.402Z,9.8
2023-04-25T08:31:06.880Z,9.8
2023-04-25T08:35:06.180Z,9.7
2023-04-25T08:36:06.311Z,9.7
2023-04-25T08:37:06.845Z,9.8
2023-04-25T08:38:06.344Z,10
2023-04-25T08:39:06.609Z,8
2023-04-25T08:40:06.711Z,10.1
2023-04-25T08:41:06.129Z,10.2
2023-04-25T08:42:06.419Z,10.4
2023-04-25T08:43:06.657Z,10.4
2023-04-25T08:44:07.041Z,10.8
2023-04-25T08:45:09.061Z,10.8
2023-04-25T08:47:06.986Z,11.4
2023-04-25T08:48:06.974Z,11.4
2023-04-25T08:49:06.097Z,11.8
2023-04-25T08:50:06.384Z,12
2023-04-25T08:51:06.532Z,12.2
2023-04-25T08:52:06.604Z,12.2
2023-04-25T08:53:06.149Z,12.4
2023-04-25T08:56:06.076Z,12.8
2023-04-25T08:57:06.441Z,13
2023-04-25T08:59:05.909Z,13
2023-04-25T09:00:06.463Z,13.1
2023-04-25T09:01:06.437Z,13.2
2023-04-25T09:02:06.814Z,13.3
2023-04-25T09:03:07.605Z,13.4
2023-04-25T09:04:06.288Z,13.4
2023-04-25T09:05:06.510Z,13.6
2023-04-25T09:06:06.821Z,11
2023-04-25T09:07:06.277Z,13.8
2023-04-25T09:09:06.800Z,14
2023-04-25T09:10:06.913Z,11
2023-04-25T09:11:06.251Z,11
2023-04-25T09:12:06.552Z,14.4
2023-04-25T09:13:06.767Z,14.5
2023-04-25T09:14:06.742Z,14.6
2023-04-25T09:15:06.115Z,14.8
2023-04-25T09:16:06.678Z,15
2023-04-25T09:17:06.984Z,15
2023-04-25T09:18:07.032Z,15.2
2023-04-25T09:19:06.099Z,15.2
2023-04-25T09:20:05.999Z,15.2
2023-04-25T09:21:16.421Z,15.5
2023-04-25T09:23:06.416Z,15.5
2023-04-25T09:24:06.664Z,15.5
2023-04-25T09:25:07.106Z,15.2
2023-04-25T09:26:06.059Z,14.8
2023-04-25T09:27:06.475Z,14.4
2023-04-25T09:28:06.674Z,14
2023-04-25T09:29:07.000Z,13.4
2023-04-25T09:30:06.325Z,13
2023-04-25T09:33:06.087Z,12.4
2023-04-25T09:34:07.381Z,12.2
2023-04-25T09:35:06.655Z,12
2023-04-25T09:36:06.968Z,11.9
2023-04-25T09:37:06.327Z,11.8
2023-04-25T09:39:06.746Z,11.5
2023-04-25T09:40:07.960Z,11.4
2023-04-25T09:41:05.926Z,11.4
2023-04-25T09:42:06.345Z,11.2
2023-04-25T09:43:06.546Z,11.2
2023-04-25T09:44:07.027Z,11.2
2023-04-25T09:46:06.488Z,11.2
2023-04-25T09:47:06.542Z,11.2
2023-04-25T09:48:06.961Z,11.2
2023-04-25T09:49:06.010Z,11.4
2023-04-25T09:50:06.401Z,11.6
2023-04-25T09:51:06.711Z,11.7
2023-04-25T09:52:07.033Z,11.7
2023-04-25T09:53:06.333Z,11.9
2023-04-25T09:54:07.031Z,11.9
2023-04-25T09:55:06.296Z,12
2023-04-25T09:56:06.593Z,12.2
2023-04-25T09:57:06.648Z,12.4
2023-04-25T09:58:06.933Z,12.6
2023-04-25T09:59:06.069Z,12.8
2023-04-25T10:00:06.499Z,13
2023-04-25T10:01:06.199Z,13.2
2023-04-25T10:02:06.465Z,13.3
2023-04-25T10:03:06.993Z,13.3
2023-04-25T10:04:07.878Z,13.3
2023-04-25T10:05:07.332Z,13.3
2023-04-25T10:08:06.695Z,13.3
2023-04-25T10:09:06.194Z,13.2
2023-04-25T10:10:07.231Z,13.3
2023-04-25T10:12:05.993Z,13.3
2023-04-25T10:13:06.275Z,13.3
2023-04-25T10:14:06.570Z,13.2
2023-04-25T10:15:07.031Z,13.2
2023-04-25T10:16:06.771Z,13.2
2023-04-25T10:17:06.252Z,13.2
2023-04-25T10:18:06.637Z,13.1
2023-04-25T10:19:06.831Z,10
2023-04-25T10:20:06.424Z,10
2023-04-25T10:21:06.446Z,13.2
2023-04-25T10:22:06.856Z,13.2
2023-04-25T10:23:06.036Z,13.2
2023-04-25T10:24:06.406Z,13.4
2023-04-25T10:25:07.173Z,13.4
2023-04-25T10:26:05.972Z,13.6
2023-04-25T10:27:06.292Z,13.8
2023-04-25T10:28:06.519Z,13.8
2023-04-25T10:29:06.793Z,13.8
2023-04-25T10:30:06.112Z,13.8
2023-04-25T10:31:06.710Z,13.7
2023-04-25T10:32:06.645Z,13.6
2023-04-25T10:33:06.807Z,13.6
2023-04-25T10:34:06.058Z,13.4
2023-04-25T10:35:06.248Z,13.2
2023-04-25T10:36:06.376Z,13.1
2023-04-25T10:37:06.742Z,13
2023-04-25T10:38:06.278Z,12.9
2023-04-25T10:39:06.238Z,12.8
2023-04-25T10:40:06.753Z,12.8
2023-04-25T10:41:06.883Z,12.7
2023-04-25T10:42:06.155Z,12.6
2023-04-25T10:43:06.346Z,12.6
2023-04-25T10:44:06.576Z,12.5
2023-04-25T10:45:06.898Z,12.5
2023-04-25T10:46:06.419Z,12.5
2023-04-25T10:47:07.167Z,12.6
2023-04-25T10:48:06.090Z,12.6
2023-04-25T10:49:06.276Z,12.6
2023-04-25T10:50:06.515Z,12.7
2023-04-25T10:51:06.701Z,12.8
2023-04-25T10:52:07.083Z,13.2
2023-04-25T10:53:06.155Z,13.2
2023-04-25T10:54:06.319Z,13.3
2023-04-25T10:55:06.820Z,13.4
2023-04-25T10:56:07.040Z,13.4
2023-04-25T10:57:06.327Z,13.4
2023-04-25T10:58:06.636Z,13.4
2023-04-25T10:59:06.915Z,13
2023-04-25T11:00:06.202Z,13
2023-04-25T11:01:06.539Z,12.9
2023-04-25T11:02:06.960Z,10
2023-04-25T11:03:06.219Z,12.6
2023-04-25T11:04:06.852Z,12.4
2023-04-25T11:05:06.417Z,12.4
2023-04-25T11:06:06.930Z,12.4
2023-04-25T11:09:06.452Z,12.2
2023-04-25T11:10:06.975Z,12.2
2023-04-25T11:11:06.395Z,12.1
2023-04-25T11:12:06.364Z,12.1
2023-04-25T11:13:06.667Z,12
2023-04-25T11:16:27.370Z,12
2023-04-25T11:17:06.285Z,12
2023-04-25T11:18:06.787Z,12
2023-04-25T11:19:06.543Z,12
2023-04-25T11:22:05.926Z,12.4
2023-04-25T11:24:06.585Z,10
2023-04-25T11:25:06.865Z,12.5
2023-04-25T11:26:06.855Z,12.5
2023-04-25T11:27:06.139Z,10
2023-04-25T11:28:06.597Z,11
2023-04-25T11:29:06.742Z,12.5
2023-04-25T11:30:06.316Z,12.5
2023-04-25T11:31:06.156Z,12.6
2023-04-25T11:32:06.904Z,12.7
2023-04-25T11:33:06.715Z,12.6
2023-04-25T11:34:06.799Z,11
2023-04-25T11:35:06.207Z,12.6
2023-04-25T11:36:06.368Z,12.5
2023-04-25T11:37:06.750Z,12.4
2023-04-25T11:38:06.264Z,12.4
2023-04-25T11:39:07.092Z,12.3
2023-04-25T11:41:07.007Z,12.2
2023-04-25T11:42:11.713Z,12.2
2023-04-25T11:43:06.922Z,12.2
2023-04-25T11:44:06.513Z,12.2
2023-04-25T11:45:06.746Z,12.2
2023-04-25T11:46:06.209Z,12.5
2023-04-25T11:47:06.522Z,12.5
2023-04-25T11:48:06.603Z,12.5
2023-04-25T11:49:06.877Z,12.6
2023-04-25T11:50:06.118Z,12.6
2023-04-25T11:51:06.222Z,12.6
2023-04-25T11:52:06.601Z,12.7
2023-04-25T11:53:06.727Z,12.7
2023-04-25T11:54:06.292Z,12.7
2023-04-25T11:55:07.016Z,12.8
2023-04-25T11:56:06.291Z,12.9
2023-04-25T11:57:06.535Z,13
2023-04-25T11:58:06.055Z,13
2023-04-25T11:59:06.885Z,12
2023-04-25T12:00:06.600Z,13.2
2023-04-25T12:01:06.338Z,13.3
2023-04-25T12:02:06.527Z,13.3
2023-04-25T12:03:07.268Z,13.4
2023-04-25T12:04:06.701Z,13.5
2023-04-25T12:06:06.194Z,13.6
2023-04-25T12:07:06.671Z,13.6
2023-04-25T12:08:05.870Z,13.7
2023-04-25T12:09:06.237Z,13.7
2023-04-25T12:10:06.677Z,13.6
2023-04-25T12:11:06.432Z,13.5
2023-04-25T12:12:06.591Z,13.5
2023-04-25T12:13:07.732Z,13.3
2023-04-25T12:16:06.673Z,13
2023-04-25T12:17:06.688Z,12.8
2023-04-25T12:18:06.355Z,12.9
2023-04-25T12:19:06.268Z,12.8
2023-04-25T12:20:06.653Z,12.8
2023-04-25T12:21:05.902Z,12.8
2023-04-25T12:22:06.665Z,12.8
2023-04-25T12:23:06.809Z,12.8
2023-04-25T12:24:06.118Z,12.8
2023-04-25T12:25:06.476Z,12.8
2023-04-25T12:26:06.560Z,12.8
2023-04-25T12:27:07.343Z,12.7
2023-04-25T12:30:06.255Z,12.7
2023-04-25T12:31:07.087Z,12.7
2023-04-25T12:32:05.960Z,12.7
2023-04-25T12:33:06.351Z,12.6
2023-04-25T12:34:06.476Z,12.5
2023-04-25T12:35:06.915Z,12.4
2023-04-25T12:36:08.536Z,12.3
2023-04-25T12:37:06.151Z,12.3
2023-04-25T12:39:06.432Z,12.3
2023-04-25T12:40:06.761Z,12.3
2023-04-25T12:42:08.745Z,12.4
2023-04-25T12:44:06.568Z,12.5
2023-04-25T12:45:06.684Z,12.6
2023-04-25T12:46:06.793Z,12.5
2023-04-25T12:47:06.853Z,12.5
2023-04-25T12:49:21.897Z,12.5
2023-04-25T12:51:07.078Z,11
2023-04-25T12:52:06.164Z,12.6
2023-04-25T12:53:06.437Z,12.6
2023-04-25T12:54:06.912Z,12.6
2023-04-25T12:55:06.080Z,12.6
2023-04-25T12:56:06.413Z,12.7
2023-04-25T12:57:06.701Z,12.6
2023-04-25T12:58:05.813Z,12.7
2023-04-25T12:59:06.451Z,12.7
2023-04-25T13:00:06.641Z,11
2023-04-25T13:01:06.871Z,12.8
2023-04-25T13:02:07.012Z,11
2023-04-25T13:03:06.417Z,12.9
2023-04-25T13:04:06.940Z,12.8
2023-04-25T13:06:06.287Z,12.9
2023-04-25T13:07:06.610Z,12.9
2023-04-25T13:08:06.647Z,12.9
2023-04-25T13:09:06.056Z,13
2023-04-25T13:10:06.207Z,13
2023-04-25T13:11:06.468Z,13
2023-04-25T13:12:06.777Z,13
2023-04-25T13:13:06.091Z,13
2023-04-25T13:14:06.116Z,11
2023-04-25T13:15:06.637Z,13.1
2023-04-25T13:16:07.378Z,13.1
2023-04-25T13:17:06.067Z,13.1
2023-04-25T13:18:06.513Z,13.1
2023-04-25T13:19:06.547Z,13
2023-04-25T13:20:06.873Z,13
2023-04-25T13:21:06.870Z,13
2023-04-25T13:22:06.276Z,12.8
2023-04-25T13:23:07.349Z,12.8
2023-04-25T13:24:06.421Z,12.7
2023-04-25T13:25:06.766Z,12.7
2023-04-25T13:26:06.919Z,12.6
2023-04-25T13:27:05.991Z,12.6
2023-04-25T13:28:06.685Z,12.4
2023-04-25T13:29:06.997Z,12.4
2023-04-25T13:30:06.141Z,12.2
2023-04-25T13:31:06.617Z,12.1
2023-04-25T13:32:06.917Z,12
2023-04-25T13:33:06.168Z,12
2023-04-25T13:34:06.459Z,11.9
2023-04-25T13:35:10.959Z,11.9
2023-04-25T13:37:06.510Z,10
2023-04-25T13:38:06.950Z,11.8
2023-04-25T13:39:05.984Z,11.8
2023-04-25T13:40:06.413Z,11.8
2023-04-25T13:41:06.720Z,11.8
2023-04-25T13:42:06.845Z,11.7
2023-04-25T13:43:06.210Z,11.6
2023-04-25T13:44:06.491Z,10
2023-04-25T13:45:06.865Z,11.6
2023-04-25T13:46:06.167Z,11.6
2023-04-25T13:47:05.955Z,11.4
2023-04-25T13:48:06.650Z,11.3
2023-04-25T13:49:15.991Z,11.2
2023-04-25T13:51:06.286Z,10.9
2023-04-25T13:52:06.556Z,10.6
2023-04-25T13:53:06.758Z,10.5
2023-04-25T13:54:06.045Z,10.3
2023-04-25T13:55:06.348Z,10.2
2023-04-25T13:56:07.014Z,10.2
2023-04-25T13:57:06.341Z,10.2
2023-04-25T13:58:06.676Z,10.2
2023-04-25T13:59:06.813Z,10.2
2023-04-25T14:01:06.662Z,10.1
2023-04-25T14:02:06.069Z,10.1
2023-04-25T14:03:06.684Z,10.1
2023-04-25T14:04:06.891Z,10.1
2023-04-25T14:05:07.089Z,10.1
2023-04-25T14:06:06.307Z,10.1
2023-04-25T14:07:06.422Z,10.2
2023-04-25T14:08:06.815Z,10.2
2023-04-25T14:09:06.046Z,10.2
2023-04-25T14:10:06.385Z,10.3
2023-04-25T14:11:06.527Z,10.3
2023-04-25T14:12:06.755Z,10.3
2023-04-25T14:13:06.033Z,10.4
2023-04-25T14:14:06.112Z,10.4
2023-04-25T14:15:06.855Z,10.3
2023-04-25T14:16:07.093Z,10.3
2023-04-25T14:17:06.185Z,10.3
2023-04-25T14:18:06.721Z,10.2
2023-04-25T14:19:06.539Z,10.2
2023-04-25T14:21:06.136Z,10.2
2023-04-25T14:22:06.401Z,10.2
2023-04-25T14:23:06.632Z,10.2
2023-04-25T14:24:06.694Z,10.1
2023-04-25T14:25:07.020Z,10.1
2023-04-25T14:26:05.943Z,10.1
2023-04-25T14:27:06.158Z,10.1
2023-04-25T14:28:06.419Z,10
2023-04-25T14:29:06.794Z,10
2023-04-25T14:30:06.099Z,10
2023-04-25T14:31:06.574Z,10
2023-04-25T14:32:06.882Z,10
2023-04-25T14:33:07.165Z,10
2023-04-25T14:34:06.225Z,10
2023-04-25T14:35:06.565Z,10
2023-04-25T14:36:05.866Z,10
2023-04-25T14:37:06.193Z,10
2023-04-25T14:38:05.187Z,8
2023-04-25T14:39:06.586Z,9.9
2023-04-25T14:40:06.871Z,9.9
2023-04-25T14:41:06.852Z,9.9
2023-04-25T14:44:05.263Z,9.8
2023-04-25T14:45:06.548Z,9.9
2023-04-25T14:46:06.324Z,9.8
2023-04-25T14:47:05.416Z,9.8
2023-04-25T14:48:06.464Z,9.9
2023-04-25T14:49:06.764Z,8
2023-04-25T14:50:06.420Z,8
2023-04-25T14:51:07.021Z,9.8
2023-04-25T14:52:06.103Z,9.8
2023-04-25T14:53:06.402Z,9.8
2023-04-25T14:54:06.662Z,9.8
2023-04-25T14:55:06.818Z,9.8
2023-04-25T14:56:06.194Z,9.8
2023-04-25T14:57:06.478Z,9.8
2023-04-25T14:58:06.851Z,9.7
2023-04-25T14:59:05.842Z,9.8
2023-04-25T15:00:06.490Z,9.8
2023-04-25T15:01:05.892Z,9.8
2023-04-25T15:02:06.557Z,9.8
2023-04-25T15:03:06.853Z,9.8
2023-04-25T15:04:06.104Z,9.8
2023-04-25T15:05:06.825Z,9.8
2023-04-25T15:11:06.222Z,9.9
2023-04-25T15:12:06.721Z,9.9
2023-04-25T15:13:06.039Z,9.8
2023-04-25T15:14:06.228Z,9.9
2023-04-25T15:15:06.714Z,9.9
2023-04-25T15:16:06.592Z,9.9
2023-04-25T15:17:07.237Z,9.9
2023-04-25T15:18:06.108Z,9.9
2023-04-25T15:19:06.347Z,9.9
2023-04-25T15:20:06.305Z,10
2023-04-25T15:21:06.059Z,10
2023-04-25T15:22:06.294Z,10